M I D A S
Marine Information and Data Acquisition System
Tripno 1736 of the Zeeleeuw from 2009-07-22 06:57:50 to 2009-07-22 14:39:28
Back to CruiseResearch ActivitiesStationsMapUnderway DataData graphs

EquipmentUnitsComment
TimeDGPSUTC
LatitudeDGPSDM.mWGS84
LongitudeDGPSDM.mWGS84
HeadingGyrodeg 
SOGDGPSknotsSpeed over ground
COGDGPSdegCourse over ground
DepthEcho soundermeters200 kHz
Missing or incorrect values are displayed as -999
Navigation data collected by the RV Zeeleeuw from 2009-07-22 06:56:46 to 2009-07-22 15:28:27
Time Latitude Longitude Heading SOG COG Depth
2009-07-22 06:57:51 51°13.662 2°55.96 125.8 -999 202 -999
2009-07-22 06:58:51 51°13.66 2°55.959 127.8 -999 117 -999
2009-07-22 06:59:51 51°13.659 2°55.961 127.8 -999 296 -999
2009-07-22 07:00:51 51°13.661 2°55.96 127.6 -999 74 -999
2009-07-22 07:01:51 51°13.66 2°55.962 124.9 -999 175 -999
2009-07-22 07:02:51 51°13.662 2°55.961 122.9 -999 30 -999
2009-07-22 07:03:51 51°13.661 2°55.96 121 -999 122 -999
2009-07-22 07:04:51 51°13.662 2°55.96 117.7 -999 190 -999
2009-07-22 07:05:51 51°13.661 2°55.959 111 0.3 294 4.5
2009-07-22 07:06:51 51°13.676 2°55.906 111.9 3.5 295 -999
2009-07-22 07:07:51 51°13.692 2°55.812 91.2 3.7 273 -999
2009-07-22 07:08:50 51°13.692 2°55.753 69.9 0.4 3 11.7
2009-07-22 07:09:48 51°13.694 2°55.753 21.1 0.4 226 11.6
2009-07-22 07:10:48 51°13.725 2°55.734 328.1 3.8 329 11.4
2009-07-22 07:11:48 51°13.817 2°55.646 332.4 7.9 332 10.2
2009-07-22 07:12:47 51°13.943 2°55.547 336.6 9 336 10
2009-07-22 07:13:47 51°14.083 2°55.446 337 9.3 335 9.9
2009-07-22 07:14:48 51°14.219 2°55.313 324.6 9.7 322 9.9
2009-07-22 07:15:48 51°14.333 2°55.119 306.5 10.4 305 10
2009-07-22 07:16:48 51°14.424 2°54.871 300 11.2 298 9.2
2009-07-22 07:17:47 51°14.507 2°54.603 301.3 11.6 298 9.3
2009-07-22 07:18:48 51°14.619 2°54.354 320.9 11.2 318 9.4
2009-07-22 07:19:47 51°14.77 2°54.194 334.8 11.1 329 9
2009-07-22 07:20:48 51°14.928 2°54.032 332.5 11.1 327 8.3
2009-07-22 07:21:48 51°15.085 2°53.881 334.5 11 330 8.5
2009-07-22 07:22:48 51°15.242 2°53.732 335.6 11 329 8.8
2009-07-22 07:23:47 51°15.396 2°53.583 334.4 11 327 9.2
2009-07-22 07:24:47 51°15.552 2°53.429 334.8 11 328 9.9
2009-07-22 07:25:48 51°15.714 2°53.28 340.6 11 333 10.4
2009-07-22 07:26:48 51°15.879 2°53.155 342.2 10.9 336 10.7
2009-07-22 07:27:48 51°16.043 2°53.032 342.4 10.9 335 11.1
2009-07-22 07:28:47 51°16.205 2°52.91 341.5 10.9 334 11
2009-07-22 07:29:48 51°16.372 2°52.786 340.3 10.9 334 11.1
2009-07-22 07:30:48 51°16.54 2°52.678 344.4 10.9 340 10.7
2009-07-22 07:31:48 51°16.707 2°52.579 344.7 10.7 341 9.4
2009-07-22 07:32:48 51°16.874 2°52.487 346.5 10.5 340 9.1
2009-07-22 07:33:47 51°17.034 2°52.389 344 10.5 337 8.9
2009-07-22 07:34:47 51°17.199 2°52.291 346.6 10.5 340 9.5
2009-07-22 07:35:48 51°17.366 2°52.191 345.9 10.6 339 10.5
2009-07-22 07:36:48 51°17.523 2°52.064 335.7 10.7 327 10.2
2009-07-22 07:37:48 51°17.665 2°51.896 329.2 10.7 322 9.6
2009-07-22 07:38:47 51°17.802 2°51.718 328.9 10.7 323 9.2
2009-07-22 07:39:48 51°17.945 2°51.536 328.4 10.9 321 9.9
2009-07-22 07:40:48 51°18.089 2°51.357 330.8 11 323 10.8
2009-07-22 07:41:47 51°18.23 2°51.183 330.2 10.9 324 11.7
2009-07-22 07:42:47 51°18.373 2°51.003 330 11 321 12.6
2009-07-22 07:43:47 51°18.512 2°50.814 326.9 11 318 13.2
2009-07-22 07:44:47 51°18.648 2°50.62 326.8 11 318 13.6
2009-07-22 07:45:48 51°18.786 2°50.421 327.3 11 318 13.7
2009-07-22 07:46:48 51°18.923 2°50.225 327.4 11 319 12.7
2009-07-22 07:47:47 51°19.06 2°50.036 327.7 11.1 319 11.1
2009-07-22 07:48:48 51°19.202 2°49.841 327.7 11.1 320 10.5
2009-07-22 07:49:47 51°19.343 2°49.65 327.6 11.2 320 11.7
2009-07-22 07:50:48 51°19.487 2°49.452 327.5 11.2 319 14.1
2009-07-22 07:51:47 51°19.624 2°49.256 326.8 11.2 318 15.5
2009-07-22 07:52:48 51°19.763 2°49.051 326.6 11.2 317 17.8
2009-07-22 07:53:47 51°19.898 2°48.849 327.1 11.3 317 20
2009-07-22 07:54:48 51°20.038 2°48.641 326.7 11.4 316 21.4
2009-07-22 07:55:48 51°20.175 2°48.435 326.9 11.4 316 21.7
2009-07-22 07:56:48 51°20.312 2°48.229 327.4 11.4 317 21.4
2009-07-22 07:57:48 51°20.449 2°48.023 327.7 11.3 317 20.6
2009-07-22 07:58:48 51°20.587 2°47.82 326.9 11.2 317 19.3
2009-07-22 07:59:48 51°20.725 2°47.619 328.1 11.3 317 16.2
2009-07-22 08:00:48 51°20.866 2°47.415 327.2 11.4 318 18.5
2009-07-22 08:01:48 51°21.007 2°47.208 327.9 11.5 317 21.3
2009-07-22 08:02:48 51°21.149 2°47.002 326.3 11.5 318 21.2
2009-07-22 08:03:48 51°21.293 2°46.799 327 11.5 319 23
2009-07-22 08:04:48 51°21.435 2°46.598 327.3 11.4 319 23.1
2009-07-22 08:05:48 51°21.578 2°46.397 327.4 11.4 318 24.8
2009-07-22 08:06:48 51°21.72 2°46.2 327.6 11.1 319 23.7
2009-07-22 08:07:48 51°21.863 2°46.001 327.5 11.6 319 21.8
2009-07-22 08:08:48 51°22.006 2°45.798 326.7 11.4 319 20.8
2009-07-22 08:09:48 51°22.148 2°45.598 327 11.3 319 21.3
2009-07-22 08:10:48 51°22.29 2°45.398 326.8 11.4 319 22.5
2009-07-22 08:11:48 51°22.431 2°45.196 327 11.4 318 24.4
2009-07-22 08:12:48 51°22.572 2°44.994 327.2 11.3 318 25.9
2009-07-22 08:13:48 51°22.712 2°44.789 326.7 11.4 317 26.1
2009-07-22 08:14:48 51°22.851 2°44.582 327.3 11.5 317 26.1
2009-07-22 08:15:48 51°22.988 2°44.374 326.7 11.5 319 25.9
2009-07-22 08:16:48 51°23.13 2°44.167 327.4 11.5 319 26.6
2009-07-22 08:17:48 51°23.271 2°43.958 327.2 11.6 318 26.5
2009-07-22 08:18:48 51°23.413 2°43.751 327.9 11.6 317 26
2009-07-22 08:19:48 51°23.555 2°43.542 327.5 11.6 317 26.6
2009-07-22 08:20:48 51°23.699 2°43.338 327.8 11.6 319 26.8
2009-07-22 08:21:48 51°23.844 2°43.138 329.6 11.5 320 23.4
2009-07-22 08:22:48 51°23.991 2°42.942 329.4 11.5 321 26.3
2009-07-22 08:23:48 51°24.142 2°42.761 333.4 11.3 325 25.8
2009-07-22 08:24:48 51°24.296 2°42.586 333.6 11.2 326 24.8
2009-07-22 08:25:48 51°24.451 2°42.42 336.3 11.2 326 23.3
2009-07-22 08:26:48 51°24.606 2°42.257 336.4 11.1 325 18.7
2009-07-22 08:27:48 51°24.759 2°42.096 336.9 11 332 25.4
2009-07-22 08:28:48 51°24.919 2°41.952 339.9 10.8 333 22.9
2009-07-22 08:29:48 51°25.079 2°41.809 337.9 11.2 326 24
2009-07-22 08:30:48 51°25.231 2°41.637 333.1 11.2 325 26.2
2009-07-22 08:31:48 51°25.377 2°41.447 327.6 11.4 318 23.4
2009-07-22 08:32:48 51°25.51 2°41.23 319 11.6 308 24.2
2009-07-22 08:33:48 51°25.619 2°40.973 310 11.7 304 27.2
2009-07-22 08:34:48 51°25.718 2°40.701 308.9 11.9 300 27.7
2009-07-22 08:35:48 51°25.817 2°40.428 309.7 11.9 299 30
2009-07-22 08:36:48 51°25.92 2°40.159 312.6 11.9 302 30.1
2009-07-22 08:37:48 51°26.041 2°39.916 320 11.7 309 30.9
2009-07-22 08:38:48 51°26.165 2°39.678 321.4 11.6 311 31
2009-07-22 08:39:48 51°26.297 2°39.459 324.2 11.4 315 32.2
2009-07-22 08:40:48 51°26.422 2°39.234 317.5 11.4 308 35.5
2009-07-22 08:41:48 51°26.514 2°38.964 303.5 11.7 295 31.9
2009-07-22 08:42:48 51°26.595 2°38.678 302.7 11.8 294 32.1
2009-07-22 08:43:48 51°26.679 2°38.395 306.7 11.8 297 32.7
2009-07-22 08:44:48 51°26.798 2°38.168 328.4 10.9 321 33
2009-07-22 08:45:48 51°26.944 2°37.989 333.5 11 324 33.3
2009-07-22 08:46:48 51°27.088 2°37.809 332.6 11 324 33
2009-07-22 08:47:48 51°27.232 2°37.626 331.6 11.1 321 32.5
2009-07-22 08:48:48 51°27.375 2°37.44 330.6 11.1 322 32.1
2009-07-22 08:49:48 51°27.518 2°37.253 330.3 11.1 320 32.1
2009-07-22 08:50:48 51°27.66 2°37.068 331.2 11.1 322 33.1
2009-07-22 08:51:48 51°27.803 2°36.882 330.5 11.1 321 34.7
2009-07-22 08:52:48 51°27.945 2°36.693 330.4 11.2 319 35.1
2009-07-22 08:53:48 51°28.087 2°36.505 330.1 11.1 320 35
2009-07-22 08:54:48 51°28.227 2°36.314 330.3 11.1 321 31.9
2009-07-22 08:55:48 51°28.37 2°36.118 331.2 11.3 322 26
2009-07-22 08:56:48 51°28.518 2°35.943 341.3 10.9 333 24.1
2009-07-22 08:57:48 51°28.686 2°35.878 8.2 10.2 1 27.1
2009-07-22 08:58:48 51°28.846 2°35.947 24.5 10 20 31.4
2009-07-22 08:59:48 51°29.007 2°36.03 21.6 10.2 16 31.4
2009-07-22 09:00:48 51°29.171 2°36.098 20 10.3 11 32.6
2009-07-22 09:01:48 51°29.334 2°36.171 21.4 10.3 13 29.4
2009-07-22 09:02:48 51°29.497 2°36.246 21.1 10.3 18 30.5
2009-07-22 09:03:48 51°29.663 2°36.322 19.7 10.1 16 28.5
2009-07-22 09:04:48 51°29.824 2°36.399 21.5 10.2 20 30.7
2009-07-22 09:05:48 51°29.987 2°36.471 20.6 10.2 16 28.7
2009-07-22 09:06:48 51°30.15 2°36.548 21.5 10.2 16 29
2009-07-22 09:07:48 51°30.311 2°36.627 22 10.2 17 28.1
2009-07-22 09:08:48 51°30.473 2°36.702 21.1 10.1 17 27.4
2009-07-22 09:09:48 51°30.635 2°36.78 21.5 10.2 18 27.5
2009-07-22 09:10:48 51°30.798 2°36.858 21.1 10.2 16 27.3
2009-07-22 09:11:48 51°30.96 2°36.934 20.6 10.2 16 27.4
2009-07-22 09:12:48 51°31.121 2°37.009 20.7 9.8 15 27
2009-07-22 09:13:48 51°31.282 2°37.085 20.3 10 16 26.3
2009-07-22 09:14:48 51°31.443 2°37.16 21.1 10.3 17 25.9
2009-07-22 09:15:48 51°31.606 2°37.236 21.5 10.2 12 24.9
2009-07-22 09:16:48 51°31.768 2°37.316 22.1 10.1 18 25
2009-07-22 09:17:48 51°31.928 2°37.402 23.6 10 22 25
2009-07-22 09:18:48 51°32.087 2°37.491 24.2 10.1 18 25.5
2009-07-22 09:19:48 51°32.247 2°37.579 23 10.3 11 26.1
2009-07-22 09:20:48 51°32.408 2°37.666 22 10.2 18 26.8
2009-07-22 09:21:48 51°32.57 2°37.759 22.6 10.3 16 26.5
2009-07-22 09:22:48 51°32.731 2°37.85 23.5 10.3 20 27.2
2009-07-22 09:23:48 51°32.891 2°37.944 22.9 10.3 22 27.6
2009-07-22 09:24:48 51°33.053 2°38.035 21.9 10.3 18 28.6
2009-07-22 09:25:48 51°33.215 2°38.125 22.2 10.3 24 29.4
2009-07-22 09:26:48 51°33.377 2°38.211 23.3 10.3 17 29.9
2009-07-22 09:27:48 51°33.539 2°38.299 22.5 10.2 21 30.4
2009-07-22 09:28:48 51°33.701 2°38.388 22.6 10.4 20 30.7
2009-07-22 09:29:48 51°33.863 2°38.478 22.8 10.3 21 31.4
2009-07-22 09:30:48 51°34.026 2°38.564 21.3 10.3 22 31
2009-07-22 09:31:48 51°34.191 2°38.639 18.9 10.4 18 31.3
2009-07-22 09:32:48 51°34.356 2°38.718 19.5 10.4 14 32.9
2009-07-22 09:33:48 51°34.522 2°38.803 20.6 10.5 18 33.6
2009-07-22 09:34:48 51°34.687 2°38.886 21.2 10.4 15 32.8
2009-07-22 09:35:48 51°34.853 2°38.969 19.8 10.4 19 33.8
2009-07-22 09:36:48 51°35.018 2°39.05 20 10.4 18 33.1
2009-07-22 09:37:48 51°35.185 2°39.13 19.1 10.4 16 32.9
2009-07-22 09:38:48 51°35.351 2°39.21 20.9 10.4 17 33.5
2009-07-22 09:39:48 51°35.518 2°39.29 21.1 10.5 12 33.2
2009-07-22 09:40:48 51°35.683 2°39.375 22 10.1 15 32.6
2009-07-22 09:41:48 51°35.85 2°39.459 20.4 10.5 16 32.7
2009-07-22 09:42:48 51°36.014 2°39.543 20.2 10.3 15 31.9
2009-07-22 09:43:48 51°36.18 2°39.619 19.5 10.4 15 32.3
2009-07-22 09:44:48 51°36.346 2°39.701 19.7 10.5 20 30.9
2009-07-22 09:45:48 51°36.512 2°39.786 20.5 10.5 17 31.4
2009-07-22 09:46:48 51°36.679 2°39.87 19.7 10.5 15 31.3
2009-07-22 09:47:48 51°36.846 2°39.952 20 10.6 16 30.6
2009-07-22 09:48:48 51°37.013 2°40.034 20 10.5 20 30.4
2009-07-22 09:49:48 51°37.18 2°40.115 19.4 10.6 16 29.4
2009-07-22 09:50:48 51°37.347 2°40.197 18.2 10.5 17 29.3
2009-07-22 09:51:48 51°37.514 2°40.28 20.2 10.6 22 28.9
2009-07-22 09:52:48 51°37.68 2°40.364 20.9 10.5 17 28.4
2009-07-22 09:53:48 51°37.849 2°40.446 19 10.6 15 27.5
2009-07-22 09:54:48 51°38.015 2°40.53 19.3 10.4 22 27.7
2009-07-22 09:55:48 51°38.181 2°40.61 21.2 10.4 13 27.5
2009-07-22 09:56:48 51°38.346 2°40.687 19.5 10.4 10 26.4
2009-07-22 09:57:48 51°38.511 2°40.761 17.2 10.2 19 25.6
2009-07-22 09:58:48 51°38.673 2°40.841 19.7 10.4 22 28.4
2009-07-22 09:59:48 51°38.835 2°40.928 21.5 10.2 20 27.7
2009-07-22 10:00:48 51°38.995 2°41.022 23.7 10.4 20 23.8
2009-07-22 10:01:48 51°39.155 2°41.114 21.5 10.2 20 27.9
2009-07-22 10:02:48 51°39.316 2°41.209 23.2 10.2 21 26.8
2009-07-22 10:03:48 51°39.477 2°41.3 21.9 10.3 22 27.4
2009-07-22 10:04:48 51°39.64 2°41.392 21 10.3 17 24.1
2009-07-22 10:05:48 51°39.802 2°41.49 22.5 10.4 22 31
2009-07-22 10:06:48 51°39.964 2°41.587 22.4 10.4 25 31.8
2009-07-22 10:07:48 51°40.127 2°41.681 21.3 10.4 21 35.4
2009-07-22 10:08:48 51°40.289 2°41.779 24.6 10.3 19 35.3
2009-07-22 10:09:48 51°40.452 2°41.874 22.6 10.5 24 33
2009-07-22 10:10:48 51°40.613 2°41.966 21.5 10.4 21 32
2009-07-22 10:11:48 51°40.773 2°42.068 25 10.3 16 35.1
2009-07-22 10:12:48 51°40.935 2°42.162 22.2 10.3 18 33.8
2009-07-22 10:13:48 51°41.097 2°42.262 21.9 10.5 24 30.1
2009-07-22 10:14:48 51°41.259 2°42.358 22.7 10.2 17 33.4
2009-07-22 10:15:48 51°41.421 2°42.46 24 10.5 21 34.5
2009-07-22 10:16:48 51°41.584 2°42.555 22.6 10.4 18 33.7
2009-07-22 10:17:48 51°41.746 2°42.654 23.6 10.3 19 36.5
2009-07-22 10:18:48 51°41.908 2°42.749 21.1 10.4 17 36.2
2009-07-22 10:19:48 51°42.071 2°42.847 24 10.2 19 36.1
2009-07-22 10:20:48 51°42.232 2°42.947 24 10.5 18 35.2
2009-07-22 10:21:48 51°42.395 2°43.046 18.8 10.4 20 33.1
2009-07-22 10:22:48 51°42.556 2°43.149 22.7 10.5 15 35.8
2009-07-22 10:23:48 51°42.71 2°43.277 39.9 10.4 38 35.2
2009-07-22 10:24:48 51°42.825 2°43.494 50.5 10.7 54 38
2009-07-22 10:25:48 51°42.932 2°43.723 52.1 10.7 53 38.9
2009-07-22 10:26:48 51°43.036 2°43.954 53.6 10.6 50 34.2
2009-07-22 10:27:48 51°43.102 2°44.216 77 10.7 80 37.3
2009-07-22 10:28:48 51°43.08 2°44.505 103 11.1 101 37.7
2009-07-22 10:29:48 51°43.032 2°44.797 103.6 11.3 104 37.9
2009-07-22 10:30:48 51°42.976 2°45.086 112.8 11.2 120 37.1
2009-07-22 10:31:48 51°42.861 2°45.327 129.9 11.5 130 40.6
2009-07-22 10:32:48 51°42.719 2°45.527 143.9 11.5 145 38.6
2009-07-22 10:33:48 51°42.556 2°45.676 159.7 11.2 158 36.8
2009-07-22 10:34:48 51°42.375 2°45.741 177.2 11.2 179 37.5
2009-07-22 10:35:48 51°42.195 2°45.676 202.8 11.2 202 39.9
2009-07-22 10:36:48 51°42.022 2°45.565 202.7 11.2 201 36.1
2009-07-22 10:37:48 51°41.842 2°45.468 199.3 11.4 198 36.1
2009-07-22 10:38:48 51°41.662 2°45.382 198.2 11.3 197 40.7
2009-07-22 10:39:48 51°41.483 2°45.288 200.7 11.3 200 39.6
2009-07-22 10:40:48 51°41.306 2°45.193 200.6 11.2 199 39.5
2009-07-22 10:41:48 51°41.13 2°45.097 201.7 11.2 199 38.3
2009-07-22 10:42:48 51°40.953 2°45.001 200.8 11.1 199 37.1
2009-07-22 10:43:48 51°40.775 2°44.912 199.7 11.3 198 39.3
2009-07-22 10:44:48 51°40.598 2°44.811 204.3 11.2 202 39.2
2009-07-22 10:45:48 51°40.425 2°44.703 204.5 11 201 36.2
2009-07-22 10:46:48 51°40.253 2°44.592 204 11 201 39.2
2009-07-22 10:47:48 51°40.083 2°44.485 204.9 11.1 203 38.6
2009-07-22 10:48:48 51°39.912 2°44.379 204.3 11.1 201 38.3
2009-07-22 10:49:48 51°39.74 2°44.27 204.5 11.1 202 39.5
2009-07-22 10:50:48 51°39.569 2°44.164 204 10.9 200 38.3
2009-07-22 10:51:48 51°39.398 2°44.058 203.9 10.8 200 36.5
2009-07-22 10:52:48 51°39.228 2°43.953 204.1 11 201 37.5
2009-07-22 10:53:48 51°39.057 2°43.846 204.5 11 202 39.6
2009-07-22 10:54:48 51°38.888 2°43.739 204.5 11 202 36.9
2009-07-22 10:55:48 51°38.72 2°43.637 204.3 10.7 201 38.8
2009-07-22 10:56:48 51°38.551 2°43.532 204.3 11 201 36.9
2009-07-22 10:57:48 51°38.382 2°43.424 204.7 10.9 201 38.1
2009-07-22 10:58:48 51°38.214 2°43.32 204.4 10.8 200 37.1
2009-07-22 10:59:48 51°38.047 2°43.219 203.4 10.7 201 38.7
2009-07-22 11:00:48 51°37.879 2°43.115 204.8 10.8 202 38.2
2009-07-22 11:01:48 51°37.712 2°43.01 204.9 10.7 203 38.3
2009-07-22 11:02:48 51°37.546 2°42.905 204.9 10.6 200 37.8
2009-07-22 11:03:48 51°37.379 2°42.801 204 10.8 202 37.3
2009-07-22 11:04:48 51°37.213 2°42.702 204.2 10.6 202 37.9
2009-07-22 11:05:48 51°37.047 2°42.594 205.1 10.8 203 38
2009-07-22 11:06:48 51°36.883 2°42.49 204 10.3 202 38.8
2009-07-22 11:07:48 51°36.72 2°42.39 203.3 10.6 201 38.4
2009-07-22 11:08:48 51°36.553 2°42.288 204.3 10.8 202 39.5
2009-07-22 11:09:48 51°36.388 2°42.184 204.8 10.6 200 39.3
2009-07-22 11:10:48 51°36.224 2°42.083 203.9 10.5 202 39.2
2009-07-22 11:11:48 51°36.062 2°41.985 203.9 10.4 200 40.7
2009-07-22 11:12:48 51°35.9 2°41.883 205.2 10.5 203 40.8
2009-07-22 11:13:48 51°35.741 2°41.786 204 10.2 201 40.9
2009-07-22 11:14:48 51°35.581 2°41.69 204.5 10.2 200 41.2
2009-07-22 11:15:48 51°35.422 2°41.592 203.8 10.1 199 40.7
2009-07-22 11:16:48 51°35.262 2°41.497 203.9 10.3 199 40.1
2009-07-22 11:17:48 51°35.105 2°41.402 204.5 10 202 39.3
2009-07-22 11:18:48 51°34.948 2°41.309 204 10.1 201 41.2
2009-07-22 11:19:48 51°34.791 2°41.214 203.9 10 201 40.9
2009-07-22 11:20:48 51°34.634 2°41.123 204.1 9.9 200 41.7
2009-07-22 11:21:48 51°34.48 2°41.031 204.3 9.9 201 41.3
2009-07-22 11:22:48 51°34.327 2°40.94 204.3 10 201 40.5
2009-07-22 11:23:48 51°34.174 2°40.849 203.7 9.6 199 40.5
2009-07-22 11:24:48 51°34.024 2°40.758 204.1 9.8 202 39.5
2009-07-22 11:25:48 51°33.87 2°40.664 204 10 201 41.1
2009-07-22 11:26:48 51°33.715 2°40.574 203.8 9.6 200 41.1
2009-07-22 11:27:48 51°33.562 2°40.484 204.1 9.7 201 43.7
2009-07-22 11:28:48 51°33.411 2°40.397 203.7 9.7 201 42.8
2009-07-22 11:29:48 51°33.259 2°40.306 204.2 9.6 200 41.1
2009-07-22 11:30:48 51°33.105 2°40.239 190.2 9.7 180 40.8
2009-07-22 11:31:48 51°32.938 2°40.293 170.4 10.5 160 39.9
2009-07-22 11:32:48 51°32.771 2°40.381 167.9 10.6 162 38.9
2009-07-22 11:33:48 51°32.602 2°40.467 168.5 10.7 163 39.7
2009-07-22 11:34:48 51°32.434 2°40.555 168.2 10.3 157 39.6
2009-07-22 11:35:48 51°32.298 2°40.716 131 11 122 39.9
2009-07-22 11:36:48 51°32.286 2°41.02 85.9 11.9 83 37.6
2009-07-22 11:37:48 51°32.342 2°41.333 72.2 12.1 65 37.8
2009-07-22 11:38:48 51°32.467 2°41.592 40.7 12.2 38 39.2
2009-07-22 11:39:48 51°32.645 2°41.756 25.1 12.4 22 39
2009-07-22 11:40:48 51°32.829 2°41.901 22.6 12.4 21 37.3
2009-07-22 11:41:48 51°33.015 2°42.048 24.5 12.4 26 32.5
2009-07-22 11:42:48 51°33.2 2°42.199 25.7 12.4 28 39.2
2009-07-22 11:43:48 51°33.387 2°42.344 25.1 12.4 23 37.1
2009-07-22 11:44:48 51°33.572 2°42.496 24.8 12.5 28 38.5
2009-07-22 11:45:48 51°33.755 2°42.651 25.4 12.5 29 35.1
2009-07-22 11:46:48 51°33.939 2°42.8 25.5 12.2 27 38.4
2009-07-22 11:47:48 51°34.123 2°42.95 26.2 12.5 31 40.6
2009-07-22 11:48:48 51°34.309 2°43.097 21.7 12.2 23 39.9
2009-07-22 11:49:48 51°34.496 2°43.237 23.1 12.5 30 39
2009-07-22 11:50:48 51°34.684 2°43.378 21.3 12.8 31 40.5
2009-07-22 11:51:48 51°34.875 2°43.515 23 12.7 23 40.2
2009-07-22 11:52:48 51°35.063 2°43.65 20.8 12.4 30 39.6
2009-07-22 11:53:48 51°35.253 2°43.787 21.5 12.6 31 39.5
2009-07-22 11:54:48 51°35.442 2°43.927 24.1 12.3 21 39.3
2009-07-22 11:55:48 51°35.634 2°44.067 22.1 12.7 18 39
2009-07-22 11:56:48 51°35.826 2°44.21 21.9 12.6 20 38.1
2009-07-22 11:57:48 51°36.015 2°44.353 24 12.6 25 39.8
2009-07-22 11:58:48 51°36.207 2°44.49 21.5 12.7 25 39.2
2009-07-22 11:59:48 51°36.398 2°44.64 23.7 12.8 28 39.2
2009-07-22 12:00:48 51°36.591 2°44.778 21.1 12.7 20 38.6
2009-07-22 12:01:48 51°36.783 2°44.922 21.4 12.8 24 38.3
2009-07-22 12:02:48 51°36.98 2°45.037 12.3 12.4 21 38
2009-07-22 12:03:48 51°37.183 2°45.139 16.2 12.7 14 36.4
2009-07-22 12:04:48 51°37.388 2°45.239 13.7 13.1 23 37.3
2009-07-22 12:05:48 51°37.59 2°45.361 19 12.8 20 35.4
2009-07-22 12:06:48 51°37.79 2°45.493 19.5 13 25 36.9
2009-07-22 12:07:48 51°37.991 2°45.626 21.9 13.2 27 37.2
2009-07-22 12:08:48 51°38.191 2°45.751 19.1 12.5 15 34.9
2009-07-22 12:09:48 51°38.392 2°45.876 19.3 13.1 21 33.8
2009-07-22 12:10:48 51°38.593 2°46.002 19.7 12.9 21 37
2009-07-22 12:11:48 51°38.795 2°46.129 19.2 12.9 21 36.7
2009-07-22 12:12:48 51°38.996 2°46.259 18.2 13.1 22 34.6
2009-07-22 12:13:48 51°39.195 2°46.387 19.2 12.7 16 35.1
2009-07-22 12:14:48 51°39.396 2°46.511 16.8 12.7 19 -999
2009-07-22 12:15:48 51°39.596 2°46.631 17.5 12.7 18 33.3
2009-07-22 12:16:48 51°39.797 2°46.755 19.7 13.1 28 34.9
2009-07-22 12:17:48 51°39.998 2°46.879 19.4 13 19 34.7
2009-07-22 12:18:48 51°40.199 2°47.006 19.7 13 24 33.2
2009-07-22 12:19:48 51°40.402 2°47.135 19 12.9 21 33.3
2009-07-22 12:20:48 51°40.602 2°47.271 25.3 13.3 26 34.3
2009-07-22 12:21:48 51°40.787 2°47.46 35.8 13.3 32 30.1
2009-07-22 12:22:48 51°40.97 2°47.66 32.3 13.2 31 33.3
2009-07-22 12:23:48 51°41.153 2°47.862 33 13.4 36 31.3
2009-07-22 12:24:48 51°41.336 2°48.063 33.2 13.3 39 30.8
2009-07-22 12:25:48 51°41.517 2°48.267 38.5 13 45 30
2009-07-22 12:26:48 51°41.581 2°48.569 106.8 12.3 96 30.2
2009-07-22 12:27:48 51°41.471 2°48.801 153.3 11 140 26.8
2009-07-22 12:28:48 51°41.329 2°48.996 151.6 11.2 140 25.5
2009-07-22 12:29:48 51°41.184 2°49.191 152.5 11.3 143 25.8
2009-07-22 12:30:48 51°41.026 2°49.306 178.4 10.4 165 30.3
2009-07-22 12:31:48 51°40.867 2°49.299 201.9 9.5 192 29.6
2009-07-22 12:32:48 51°40.717 2°49.225 204.5 9.6 196 32.2
2009-07-22 12:33:48 51°40.566 2°49.154 202.4 9.2 195 26.3
2009-07-22 12:34:48 51°40.411 2°49.09 201.9 9.5 195 30.8
2009-07-22 12:35:48 51°40.254 2°49.028 200.5 9.8 195 32.4
2009-07-22 12:36:48 51°40.099 2°48.971 200.4 9.5 193 31.1
2009-07-22 12:37:48 51°39.941 2°48.906 201.1 9.9 193 30.3
2009-07-22 12:38:48 51°39.782 2°48.848 200.3 9.6 191 31.1
2009-07-22 12:39:48 51°39.623 2°48.795 199.1 9.6 191 31.6
2009-07-22 12:40:48 51°39.468 2°48.735 204.4 9.4 198 31.8
2009-07-22 12:41:48 51°39.316 2°48.66 204.9 9.3 196 26.2
2009-07-22 12:42:48 51°39.167 2°48.579 208.7 9.5 202 28.7
2009-07-22 12:43:48 51°39.018 2°48.485 208.4 9.6 200 26.4
2009-07-22 12:44:48 51°38.871 2°48.392 208.6 9.7 201 26.1
2009-07-22 12:45:48 51°38.722 2°48.302 207.8 9.6 201 26
2009-07-22 12:46:48 51°38.573 2°48.216 207.5 9.6 198 19.6
2009-07-22 12:47:48 51°38.427 2°48.131 208.6 9.2 200 22
2009-07-22 12:48:48 51°38.281 2°48.045 207.7 9.4 199 21.4
2009-07-22 12:49:48 51°38.136 2°47.96 208.7 9.5 199 22.1
2009-07-22 12:50:48 51°37.988 2°47.873 208.1 9.6 199 24.4
2009-07-22 12:51:48 51°37.839 2°47.782 209.6 9.6 202 25
2009-07-22 12:52:48 51°37.692 2°47.695 208 9.3 202 22
2009-07-22 12:53:48 51°37.543 2°47.606 207.8 9.6 201 20.4
2009-07-22 12:54:48 51°37.393 2°47.517 207.8 9.7 200 21.5
2009-07-22 12:55:48 51°37.244 2°47.427 209.3 9.4 200 23.5
2009-07-22 12:56:48 51°37.096 2°47.338 208.2 9.3 198 20.5
2009-07-22 12:57:48 51°36.949 2°47.255 207.7 9.4 201 19.4
2009-07-22 12:58:48 51°36.798 2°47.166 207.4 9.8 201 19.3
2009-07-22 12:59:48 51°36.649 2°47.08 208.7 9.4 199 20.6
2009-07-22 13:00:48 51°36.499 2°46.993 206.2 9.6 200 21.2
2009-07-22 13:01:48 51°36.347 2°46.918 204.5 9.5 198 25.1
2009-07-22 13:02:48 51°36.194 2°46.838 205.6 9.7 195 25
2009-07-22 13:03:48 51°36.042 2°46.757 206.2 9.4 199 24.2
2009-07-22 13:04:48 51°35.891 2°46.674 204.8 9.7 198 25.7
2009-07-22 13:05:48 51°35.739 2°46.591 205.1 9.5 202 26.5
2009-07-22 13:06:48 51°35.59 2°46.509 205.5 9.5 200 28.5
2009-07-22 13:07:48 51°35.44 2°46.419 204.8 9.6 198 28.7
2009-07-22 13:08:48 51°35.29 2°46.331 205.8 9.5 200 29
2009-07-22 13:09:48 51°35.14 2°46.239 205.4 9.5 203 31
2009-07-22 13:10:48 51°34.992 2°46.147 205.9 9.5 200 31.9
2009-07-22 13:11:48 51°34.843 2°46.058 205.2 9.5 201 31.9
2009-07-22 13:12:48 51°34.695 2°45.972 205.3 9.5 199 32.9
2009-07-22 13:13:48 51°34.546 2°45.883 204.6 9.5 199 31.9
2009-07-22 13:14:48 51°34.398 2°45.804 202.8 9.3 197 32.5
2009-07-22 13:15:48 51°34.247 2°45.724 203.6 9.6 197 32.7
2009-07-22 13:16:48 51°34.096 2°45.644 202.6 9.4 198 32.4
2009-07-22 13:17:48 51°33.947 2°45.566 202.6 9.4 198 31.7
2009-07-22 13:18:48 51°33.798 2°45.487 201.9 9.3 196 31.4
2009-07-22 13:19:48 51°33.648 2°45.417 200.6 9.5 194 32.6
2009-07-22 13:20:48 51°33.496 2°45.346 201.7 9.6 197 31.9
2009-07-22 13:21:48 51°33.344 2°45.276 201.5 9.4 197 32.3
2009-07-22 13:22:48 51°33.193 2°45.204 200.4 9.5 196 31.9
2009-07-22 13:23:48 51°33.042 2°45.135 201 9.5 197 33.1
2009-07-22 13:24:48 51°32.89 2°45.064 201.3 9.4 197 33.2
2009-07-22 13:25:48 51°32.74 2°44.995 201.6 9.5 196 34.3
2009-07-22 13:26:48 51°32.589 2°44.925 201.1 9.5 195 35.8
2009-07-22 13:27:48 51°32.437 2°44.856 202.2 9.3 196 37
2009-07-22 13:28:48 51°32.287 2°44.79 200.5 9.4 195 38
2009-07-22 13:29:48 51°32.14 2°44.706 204.4 9.4 200 36.3
2009-07-22 13:30:48 51°31.999 2°44.617 205.6 9.3 201 35.2
2009-07-22 13:31:48 51°31.852 2°44.524 205.8 9.4 202 35.6
2009-07-22 13:32:48 51°31.708 2°44.433 205.5 9.3 204 35.3
2009-07-22 13:33:48 51°31.562 2°44.343 205.9 9.3 202 36.3
2009-07-22 13:34:48 51°31.417 2°44.25 205.7 9.3 200 35.2
2009-07-22 13:35:48 51°31.272 2°44.158 205.2 9.3 201 36.3
2009-07-22 13:36:48 51°31.127 2°44.066 205.5 9.3 200 35.2
2009-07-22 13:37:48 51°30.981 2°43.975 205.9 9.3 203 37.6
2009-07-22 13:38:48 51°30.836 2°43.887 204.1 9.4 201 34.9
2009-07-22 13:39:48 51°30.691 2°43.801 202.6 9.5 197 33.5
2009-07-22 13:40:48 51°30.545 2°43.73 201.2 9.2 198 33.8
2009-07-22 13:41:48 51°30.396 2°43.669 199.3 9.2 192 33
2009-07-22 13:42:48 51°30.243 2°43.627 191.9 9.6 183 35.2
2009-07-22 13:43:48 51°30.081 2°43.637 184.1 9.8 175 33
2009-07-22 13:44:48 51°29.92 2°43.642 190.8 9.5 181 33.6
2009-07-22 13:45:48 51°29.761 2°43.637 183.2 9.6 175 33
2009-07-22 13:46:48 51°29.599 2°43.724 167.7 10.4 159 32.8
2009-07-22 13:47:48 51°29.438 2°43.83 166.8 10.4 159 32
2009-07-22 13:48:48 51°29.275 2°43.931 166.7 10.4 158 29.8
2009-07-22 13:49:48 51°29.115 2°44.035 167 10.3 158 32.7
2009-07-22 13:50:48 51°28.955 2°44.143 167.2 10.5 156 29.5
2009-07-22 13:51:48 51°28.794 2°44.253 165.9 10.6 157 30.9
2009-07-22 13:52:48 51°28.633 2°44.374 165.3 10.6 153 30.5
2009-07-22 13:53:48 51°28.473 2°44.496 165.4 10.8 151 30.7
2009-07-22 13:54:48 51°28.311 2°44.619 164.8 10.8 155 31.1
2009-07-22 13:55:48 51°28.148 2°44.738 166 10.8 156 30.7
2009-07-22 13:56:48 51°27.985 2°44.858 164.8 10.6 155 29.8
2009-07-22 13:57:48 51°27.821 2°44.976 165.3 10.9 158 29.2
2009-07-22 13:58:48 51°27.655 2°45.093 164.2 10.8 157 29
2009-07-22 13:59:48 51°27.489 2°45.205 165.3 10.8 158 29.5
2009-07-22 14:00:48 51°27.324 2°45.32 164.4 10.7 158 29.7
2009-07-22 14:01:48 51°27.16 2°45.433 166.6 10.6 157 30
2009-07-22 14:02:48 51°26.994 2°45.549 164.8 10.8 156 30.2
2009-07-22 14:03:48 51°26.829 2°45.667 164.8 10.9 156 32.6
2009-07-22 14:04:48 51°26.664 2°45.781 164.9 10.7 157 29.8
2009-07-22 14:05:48 51°26.501 2°45.896 165.3 10.6 157 28.8
2009-07-22 14:06:48 51°26.338 2°46.01 164.9 10.6 158 28.9
2009-07-22 14:07:48 51°26.174 2°46.121 164.9 10.6 157 27.3
2009-07-22 14:08:48 51°26.012 2°46.232 165.2 10.7 156 27.6
2009-07-22 14:09:48 51°25.848 2°46.343 164.7 10.4 161 26.1
2009-07-22 14:10:48 51°25.686 2°46.456 164.9 10.9 154 25.5
2009-07-22 14:11:48 51°25.521 2°46.563 164.8 10.7 158 26.3
2009-07-22 14:12:48 51°25.357 2°46.679 163.8 10.7 157 26.6
2009-07-22 14:13:48 51°25.192 2°46.79 165.4 10.8 157 26.9
2009-07-22 14:14:48 51°25.027 2°46.904 164.7 10.8 159 26.6
2009-07-22 14:15:48 51°24.86 2°47.016 166.5 11 156 30.7
2009-07-22 14:16:48 51°24.693 2°47.127 165.3 10.7 159 31.8
2009-07-22 14:17:48 51°24.528 2°47.241 166 10.9 156 32.6
2009-07-22 14:18:48 51°24.362 2°47.352 165.6 10.7 161 29.3
2009-07-22 14:19:48 51°24.196 2°47.466 164.9 10.8 157 25.9
2009-07-22 14:20:48 51°24.03 2°47.576 165.6 10.9 157 23.9
2009-07-22 14:21:48 51°23.864 2°47.688 165.3 10.8 159 23.4
2009-07-22 14:22:48 51°23.696 2°47.793 164.5 10.9 158 22.9
2009-07-22 14:23:48 51°23.528 2°47.898 165.6 10.9 158 21.1
2009-07-22 14:24:48 51°23.361 2°48.01 163 10.9 156 22.5
2009-07-22 14:25:48 51°23.194 2°48.128 164.6 11 152 22.5
2009-07-22 14:26:48 51°23.029 2°48.249 163.3 10.9 153 20.5
2009-07-22 14:27:48 51°22.866 2°48.369 163.6 10.7 156 19.5
2009-07-22 14:28:48 51°22.701 2°48.484 163.1 10.9 158 19.3
2009-07-22 14:29:48 51°22.539 2°48.608 162.7 10.9 151 19.5
2009-07-22 14:30:48 51°22.374 2°48.728 163.2 10.9 156 19.8
2009-07-22 14:31:48 51°22.206 2°48.845 163.7 11 158 24.8
2009-07-22 14:32:48 51°22.035 2°48.959 163.2 11.1 159 24.7
2009-07-22 14:33:48 51°21.865 2°49.084 160.5 11.3 154 24.8
2009-07-22 14:34:48 51°21.695 2°49.21 161 11.3 155 24.5
2009-07-22 14:35:48 51°21.526 2°49.336 161.5 11.3 152 23.1
2009-07-22 14:36:48 51°21.357 2°49.464 160.5 11.1 154 23
2009-07-22 14:37:48 51°21.19 2°49.591 161 11.2 155 23.5
2009-07-22 14:38:48 51°21.023 2°49.719 160.9 11.1 156 24.2
2009-07-22 14:39:48 51°20.858 2°49.847 162.7 11.2 151 24.2
2009-07-22 14:40:48 51°20.694 2°49.98 160.8 11.2 151 23.9
2009-07-22 14:41:48 51°20.53 2°50.108 161.9 11 155 22.3
2009-07-22 14:42:48 51°20.366 2°50.235 161.5 10.9 157 19.8
2009-07-22 14:43:48 51°20.202 2°50.36 160.8 11 151 17.8
2009-07-22 14:44:48 51°20.036 2°50.481 162.4 10.9 153 16.9
2009-07-22 14:45:48 51°19.87 2°50.598 161.2 11 158 14.3
2009-07-22 14:46:48 51°19.702 2°50.713 161 11 157 13.4
2009-07-22 14:47:48 51°19.533 2°50.826 160.6 11 159 14.3
2009-07-22 14:48:48 51°19.364 2°50.938 161.8 10.9 162 15.9
2009-07-22 14:49:48 51°19.194 2°51.054 160.7 11 155 16.3
2009-07-22 14:50:48 51°19.027 2°51.172 161.5 11 156 16.2
2009-07-22 14:51:48 51°18.861 2°51.288 161.7 10.9 157 15.8
2009-07-22 14:52:48 51°18.694 2°51.404 160.8 10.9 158 15.4
2009-07-22 14:53:48 51°18.527 2°51.52 161.5 10.9 155 14.5
2009-07-22 14:54:48 51°18.361 2°51.635 161 11 158 13.6
2009-07-22 14:55:48 51°18.194 2°51.749 161.9 10.8 160 12.6
2009-07-22 14:56:48 51°18.026 2°51.86 161.4 10.9 160 11.9
2009-07-22 14:57:48 51°17.854 2°51.936 170.5 10.7 166 11.5
2009-07-22 14:58:48 51°17.68 2°51.997 170.7 10.7 171 11.6
2009-07-22 14:59:48 51°17.506 2°52.067 166.3 10.6 165 12.6
2009-07-22 15:00:48 51°17.333 2°52.152 164.4 10.9 161 12.6
2009-07-22 15:01:48 51°17.164 2°52.264 160.3 11 154 11.7
2009-07-22 15:02:48 51°17.002 2°52.4 153.3 11.1 152 11.2
2009-07-22 15:03:48 51°16.845 2°52.556 151.5 11 154 11.2
2009-07-22 15:04:48 51°16.688 2°52.711 152.2 11.2 148 12
2009-07-22 15:05:48 51°16.527 2°52.864 154.4 11.2 147 13.2
2009-07-22 15:06:48 51°16.364 2°53.007 154.7 11.2 151 13.3
2009-07-22 15:07:48 51°16.201 2°53.154 154.1 11.3 146 13.2
2009-07-22 15:08:48 51°16.037 2°53.295 155 11.3 149 12.9
2009-07-22 15:09:48 51°15.871 2°53.433 154.3 11.3 155 13.1
2009-07-22 15:10:48 51°15.709 2°53.585 151.3 11.3 150 13.1
2009-07-22 15:11:48 51°15.545 2°53.737 151.4 11.3 152 12.1
2009-07-22 15:12:48 51°15.383 2°53.89 151.3 11.4 149 10.9
2009-07-22 15:13:48 51°15.223 2°54.04 151.6 11.3 149 10
2009-07-22 15:14:48 51°15.06 2°54.192 151.1 11.3 150 9.8
2009-07-22 15:15:48 51°14.9 2°54.349 149.1 11.6 144 10.4
2009-07-22 15:16:48 51°14.741 2°54.514 148.2 11.3 148 11
2009-07-22 15:17:48 51°14.589 2°54.7 142.7 11.5 142 11
2009-07-22 15:18:48 51°14.446 2°54.903 135.7 11.4 132 11.5
2009-07-22 15:19:48 51°14.325 2°55.133 127.9 11 128 12.2
2009-07-22 15:20:48 51°14.208 2°55.326 139.4 9.5 141 12
2009-07-22 15:21:48 51°14.079 2°55.439 154 8.5 154 11.9
2009-07-22 15:22:48 51°13.954 2°55.532 155.2 8 155 12.1
2009-07-22 15:23:48 51°13.834 2°55.621 154.2 7.6 153 11.7
2009-07-22 15:24:48 51°13.747 2°55.719 135.8 5.5 134 11.9
2009-07-22 15:25:48 51°13.699 2°55.819 123.6 4.1 122 10.1
2009-07-22 15:26:48 51°13.675 2°55.904 110 3.2 109 9.5
2009-07-22 15:27:48 51°13.663 2°55.951 117.1 0.8 120 6.9